createdAt,value
2023-04-18T00:00:24.113Z,12.02
2023-04-18T00:02:55.010Z,11.43
2023-04-18T00:07:48.205Z,11.27
2023-04-18T00:10:14.675Z,10.73
2023-04-18T00:12:41.140Z,11.80
2023-04-18T00:15:11.541Z,11.23
2023-04-18T00:17:38.472Z,10.43
2023-04-18T00:20:07.865Z,10.82
2023-04-18T00:22:34.278Z,10.63
2023-04-18T00:25:00.726Z,11.18
2023-04-18T00:27:27.128Z,10.50
2023-04-18T00:29:53.555Z,11.15
2023-04-18T00:32:20.131Z,10.27
2023-04-18T00:34:46.538Z,9.68
2023-04-18T00:37:12.928Z,9.93
2023-04-18T00:39:39.421Z,10.02
2023-04-18T00:42:06.134Z,9.82
2023-04-18T00:44:32.638Z,9.48
2023-04-18T00:46:59.092Z,8.60
2023-04-18T00:49:26.115Z,8.35
2023-04-18T00:51:53.523Z,8.15
2023-04-18T00:54:20.159Z,8.40
2023-04-18T00:56:46.869Z,8.27
2023-04-18T00:59:13.439Z,7.53
2023-04-18T01:01:40.166Z,7.63
2023-04-18T01:04:08.053Z,7.68
2023-04-18T01:06:35.431Z,7.43
2023-04-18T01:09:02.196Z,8.00
2023-04-18T01:11:28.674Z,7.72
2023-04-18T01:14:02.862Z,7.88
2023-04-18T01:16:30.082Z,7.20
2023-04-18T01:18:57.010Z,6.85
2023-04-18T01:21:23.488Z,8.02
2023-04-18T01:23:50.880Z,7.40
2023-04-18T01:26:17.306Z,7.22
2023-04-18T01:28:43.706Z,7.03
2023-04-18T01:31:10.330Z,6.57
2023-04-18T01:33:37.282Z,7.20
2023-04-18T01:36:03.806Z,8.00
2023-04-18T01:38:30.281Z,8.00
2023-04-18T01:40:56.832Z,6.93
2023-04-18T01:43:23.253Z,7.60
2023-04-18T01:45:49.629Z,7.32
2023-04-18T01:48:16.027Z,7.30
2023-04-18T01:50:42.494Z,7.63
2023-04-18T01:53:08.915Z,8.30
2023-04-18T01:55:35.496Z,7.90
2023-04-18T01:58:01.913Z,7.78
2023-04-18T02:00:28.377Z,7.25
2023-04-18T02:02:54.976Z,7.57
2023-04-18T02:05:21.499Z,6.93
2023-04-18T02:07:49.985Z,7.25
2023-04-18T02:10:16.397Z,7.57
2023-04-18T02:12:43.036Z,8.32
2023-04-18T02:15:09.903Z,8.50
2023-04-18T02:17:36.821Z,7.95
2023-04-18T02:20:03.831Z,8.40
2023-04-18T02:22:30.263Z,8.77
2023-04-18T02:24:56.683Z,8.50
2023-04-18T02:27:23.090Z,8.95
2023-04-18T02:29:49.534Z,8.13
2023-04-18T02:32:15.966Z,8.68
2023-04-18T02:34:42.409Z,9.25
2023-04-18T02:37:08.784Z,9.52
2023-04-18T02:39:35.177Z,8.60
2023-04-18T02:42:01.638Z,8.15
2023-04-18T02:44:28.194Z,8.93
2023-04-18T02:46:54.609Z,8.80
2023-04-18T02:49:21.054Z,9.32
2023-04-18T02:51:47.503Z,8.50
2023-04-18T02:54:14.069Z,8.63
2023-04-18T02:56:42.496Z,8.48
2023-04-18T02:59:08.931Z,9.02
2023-04-18T03:01:35.362Z,8.50
2023-04-18T03:04:01.858Z,9.48
2023-04-18T03:06:28.403Z,9.02
2023-04-18T03:08:55.521Z,8.73
2023-04-18T03:11:22.436Z,9.10
2023-04-18T03:13:48.873Z,8.48
2023-04-18T03:16:15.461Z,9.63
2023-04-18T03:18:41.944Z,9.77
2023-04-18T03:21:08.417Z,9.27
2023-04-18T03:23:34.890Z,9.73
2023-04-18T03:26:01.470Z,8.50
2023-04-18T03:28:27.930Z,9.30
2023-04-18T03:30:54.400Z,9.27
2023-04-18T03:33:20.816Z,9.63
2023-04-18T03:35:47.262Z,8.52
2023-04-18T03:38:13.637Z,9.88
2023-04-18T03:40:40.072Z,9.57
2023-04-18T03:43:06.495Z,9.70
2023-04-18T03:45:33.199Z,9.65
2023-04-18T03:47:59.682Z,9.07
2023-04-18T03:50:26.093Z,8.65
2023-04-18T03:52:52.735Z,9.63
2023-04-18T03:55:19.738Z,9.93
2023-04-18T03:57:46.724Z,9.20
2023-04-18T04:00:13.954Z,9.85
2023-04-18T04:02:40.816Z,9.93
2023-04-18T04:05:08.109Z,9.40
2023-04-18T04:07:34.627Z,9.88
2023-04-18T04:10:01.370Z,9.25
2023-04-18T04:12:27.859Z,9.88
2023-04-18T04:14:54.612Z,9.35
2023-04-18T04:17:21.310Z,9.85
2023-04-18T04:19:49.222Z,9.55
2023-04-18T04:22:16.392Z,10.10
2023-04-18T04:24:42.954Z,10.40
2023-04-18T04:27:11.049Z,9.43
2023-04-18T04:29:39.074Z,9.90
2023-04-18T04:32:06.570Z,10.27
2023-04-18T04:34:34.465Z,9.32
2023-04-18T04:37:30.362Z,9.57
2023-04-18T04:40:34.010Z,10.05
2023-04-18T04:46:21.691Z,9.55
2023-04-18T04:48:57.119Z,10.10
2023-04-18T04:51:25.274Z,10.93
2023-04-18T04:54:08.297Z,10.18
2023-04-18T04:56:44.547Z,9.50
2023-04-18T04:59:19.884Z,9.77
2023-04-18T05:01:50.991Z,9.07
2023-04-18T05:04:20.070Z,10.50
2023-04-18T05:06:52.800Z,9.38
2023-04-18T05:09:26.536Z,10.07
2023-04-18T05:12:01.927Z,10.35
2023-04-18T05:14:34.817Z,9.55
2023-04-18T05:17:10.983Z,10.15
2023-04-18T05:19:44.532Z,9.68
2023-04-18T05:25:07.344Z,9.60
2023-04-18T05:27:36.858Z,9.85
2023-04-18T05:30:09.408Z,9.25
2023-04-18T05:32:41.508Z,9.82
2023-04-18T05:35:19.795Z,10.60
2023-04-18T05:37:56.326Z,10.00
2023-04-18T05:40:33.875Z,10.35
2023-04-18T05:43:03.664Z,9.93
2023-04-18T05:45:34.630Z,8.45
2023-04-18T05:48:08.654Z,8.63
2023-04-18T05:50:36.657Z,9.73
2023-04-18T05:53:12.085Z,10.48
2023-04-18T05:56:19.879Z,8.07
2023-04-18T06:05:25.504Z,9.15
2023-04-18T06:30:50.774Z,8.15
2023-04-18T06:48:26.613Z,9.00
2023-04-18T06:52:01.943Z,8.18
2023-04-18T07:01:01.900Z,7.45
2023-04-18T07:03:29.626Z,8.07
2023-04-18T07:06:01.043Z,8.13
2023-04-18T07:08:36.193Z,7.60
2023-04-18T07:11:16.832Z,7.80
2023-04-18T07:13:53.680Z,8.40
2023-04-18T07:16:32.249Z,8.38
2023-04-18T07:19:34.339Z,7.97
2023-04-18T07:22:10.459Z,7.97
2023-04-18T07:24:45.136Z,8.77
2023-04-18T07:27:14.339Z,8.70
2023-04-18T07:29:43.175Z,7.53
2023-04-18T07:32:25.609Z,7.53
2023-04-18T07:37:36.517Z,8.07
2023-04-18T07:40:14.363Z,7.68
2023-04-18T07:43:03.754Z,8.15
2023-04-18T07:45:40.207Z,8.32
2023-04-18T07:48:13.542Z,8.35
2023-04-18T07:50:42.255Z,8.45
2023-04-18T07:53:16.477Z,7.68
2023-04-18T07:56:08.161Z,8.38
2023-04-18T07:58:44.961Z,7.75
2023-04-18T08:01:18.233Z,7.45
2023-04-18T08:04:05.327Z,7.80
2023-04-18T08:06:39.250Z,7.90
2023-04-18T08:09:10.200Z,7.90
2023-04-18T08:11:45.972Z,8.02
2023-04-18T08:14:16.640Z,8.27
2023-04-18T08:17:01.042Z,8.38
2023-04-18T08:19:36.318Z,8.73
2023-04-18T08:22:10.956Z,7.97
2023-04-18T08:25:03.313Z,8.77
2023-04-18T08:27:39.822Z,8.98
2023-04-18T08:30:21.575Z,8.68
2023-04-18T08:35:48.404Z,7.03
2023-04-18T08:38:15.047Z,7.88
2023-04-18T08:40:48.007Z,8.75
2023-04-18T08:43:20.935Z,8.02
2023-04-18T08:45:51.101Z,8.32
2023-04-18T08:48:23.273Z,8.32
2023-04-18T08:51:05.787Z,8.90
2023-04-18T08:53:37.027Z,8.50
2023-04-18T08:56:06.761Z,8.90
2023-04-18T08:58:43.980Z,9.32
2023-04-18T09:01:14.397Z,16.80
2023-04-18T09:03:55.075Z,9.35
2023-04-18T09:06:27.718Z,9.57
2023-04-18T09:09:09.419Z,9.68
2023-04-18T09:11:43.941Z,9.70
2023-04-18T09:14:33.684Z,9.00
2023-04-18T09:17:08.663Z,8.80
2023-04-18T09:19:58.010Z,8.43
2023-04-18T09:23:08.133Z,7.38
2023-04-18T09:38:11.339Z,6.97
2023-04-18T09:40:38.153Z,7.70
2023-04-18T09:43:21.324Z,7.28
2023-04-18T09:45:50.663Z,6.82
2023-04-18T09:48:17.266Z,6.03
2023-04-18T09:50:44.520Z,6.10
2023-04-18T09:56:37.249Z,7.20
2023-04-18T09:59:08.811Z,7.07
2023-04-18T10:01:39.286Z,6.55
2023-04-18T10:04:09.229Z,7.32
2023-04-18T10:06:42.136Z,6.35
2023-04-18T10:09:11.599Z,6.47
2023-04-18T10:11:38.430Z,6.55
2023-04-18T10:14:08.252Z,6.47
2023-04-18T10:19:29.646Z,6.55
2023-04-18T10:22:06.933Z,7.03
2023-04-18T10:24:53.230Z,7.55
2023-04-18T10:27:55.274Z,7.28
2023-04-18T10:30:41.849Z,6.43
2023-04-18T10:36:03.150Z,6.60
2023-04-18T10:38:30.560Z,7.28
2023-04-18T10:41:33.092Z,6.75
2023-04-18T10:44:08.960Z,7.03
2023-04-18T10:49:27.398Z,6.65
2023-04-18T10:51:58.568Z,7.25
2023-04-18T10:54:55.241Z,6.35
2023-04-18T10:57:25.146Z,6.38
2023-04-18T10:59:52.524Z,7.78
2023-04-18T11:02:49.300Z,7.03
2023-04-18T11:05:20.730Z,7.15
2023-04-18T11:07:48.938Z,6.53
2023-04-18T11:10:23.998Z,6.88
2023-04-18T11:12:51.075Z,7.10
2023-04-18T11:15:22.888Z,6.28
2023-04-18T11:18:01.012Z,6.82
2023-04-18T11:20:28.742Z,8.07
2023-04-18T11:22:57.701Z,7.80
2023-04-18T11:25:37.015Z,7.82
2023-04-18T11:28:04.430Z,8.63
2023-04-18T11:30:43.899Z,8.20
2023-04-18T11:33:11.823Z,7.78
2023-04-18T11:35:43.119Z,10.88
2023-04-18T11:38:12.588Z,8.30
2023-04-18T11:40:41.748Z,8.13
2023-04-18T11:43:08.344Z,8.00
2023-04-18T11:45:34.996Z,8.75
2023-04-18T11:48:05.717Z,8.32
2023-04-18T11:50:36.861Z,8.10
2023-04-18T11:53:12.553Z,7.82
2023-04-18T11:55:44.161Z,8.10
2023-04-18T11:58:29.585Z,9.30
2023-04-18T12:00:56.165Z,7.97
2023-04-18T12:03:25.622Z,7.85
2023-04-18T12:06:00.789Z,8.35
2023-04-18T12:08:27.430Z,8.35
2023-04-18T12:11:02.506Z,8.48
2023-04-18T12:13:36.767Z,9.18
2023-04-18T12:16:03.420Z,8.55
2023-04-18T12:18:31.502Z,9.60
2023-04-18T12:21:02.337Z,8.57
2023-04-18T12:23:35.780Z,8.93
2023-04-18T12:26:15.325Z,8.88
2023-04-18T12:28:52.566Z,9.07
2023-04-18T12:31:19.238Z,9.00
2023-04-18T12:33:54.506Z,10.25
2023-04-18T12:36:23.498Z,9.50
2023-04-18T12:38:53.723Z,9.80
2023-04-18T12:41:23.153Z,9.02
2023-04-18T12:43:49.998Z,9.55
2023-04-18T12:48:03.812Z,10.05
2023-04-18T12:50:48.237Z,14.63
2023-04-18T13:01:53.074Z,9.80
2023-04-18T13:08:19.019Z,10.25
2023-04-18T13:11:51.327Z,10.60
2023-04-18T13:15:11.941Z,9.38
2023-04-18T13:28:37.186Z,10.20
2023-04-18T13:31:27.976Z,10.65
2023-04-18T13:34:32.237Z,10.48
2023-04-18T13:37:22.041Z,8.13
2023-04-18T13:44:04.579Z,10.82
2023-04-18T13:51:01.880Z,10.20
2023-04-18T13:54:13.345Z,10.18
2023-04-18T13:57:18.400Z,9.77
2023-04-18T13:59:57.006Z,9.27
2023-04-18T14:03:02.984Z,10.23
2023-04-18T14:05:54.577Z,9.85
2023-04-18T14:14:37.934Z,9.82
2023-04-18T14:20:57.299Z,9.07
2023-04-18T14:23:30.000Z,9.45
2023-04-18T14:33:20.081Z,9.60
2023-04-18T14:39:58.303Z,10.73
2023-04-18T14:46:55.988Z,10.10
2023-04-18T14:57:06.793Z,10.30
2023-04-18T14:59:33.261Z,9.82
2023-04-18T15:01:59.811Z,9.25
2023-04-18T15:04:26.612Z,8.57
2023-04-18T15:06:53.181Z,9.25
2023-04-18T15:09:19.641Z,8.60
2023-04-18T15:11:46.043Z,9.45
2023-04-18T15:14:12.753Z,9.90
2023-04-18T15:16:40.792Z,9.27
2023-04-18T15:19:07.413Z,9.93
2023-04-18T15:21:33.898Z,9.30
2023-04-18T15:24:00.525Z,9.20
2023-04-18T15:26:27.101Z,8.88
2023-04-18T15:28:54.620Z,9.15
2023-04-18T15:31:21.733Z,8.98
2023-04-18T15:33:48.353Z,8.85
2023-04-18T15:36:14.737Z,9.15
2023-04-18T15:38:42.428Z,9.15
2023-04-18T15:41:08.903Z,8.23
2023-04-18T15:43:35.385Z,8.65
2023-04-18T15:46:01.922Z,9.23
2023-04-18T15:48:30.216Z,9.00
2023-04-18T15:50:56.782Z,8.52
2023-04-18T15:53:23.243Z,9.02
2023-04-18T15:55:50.692Z,9.00
2023-04-18T15:58:17.300Z,8.57
2023-04-18T16:00:44.307Z,8.13
2023-04-18T16:03:10.964Z,8.38
2023-04-18T16:05:37.635Z,8.73
2023-04-18T16:08:04.150Z,8.73
2023-04-18T16:10:30.719Z,8.70
2023-04-18T16:12:59.390Z,8.73
2023-04-18T16:15:25.961Z,7.82
2023-04-18T16:17:52.398Z,8.02
2023-04-18T16:20:19.049Z,8.63
2023-04-18T16:22:45.534Z,8.80
2023-04-18T16:25:11.961Z,8.45
2023-04-18T16:27:38.451Z,8.55
2023-04-18T16:30:05.402Z,8.32
2023-04-18T16:32:31.908Z,8.77
2023-04-18T16:34:58.442Z,8.18
2023-04-18T16:37:24.942Z,8.55
2023-04-18T16:39:51.406Z,7.63
2023-04-18T16:42:17.830Z,7.60
2023-04-18T16:44:47.246Z,8.23
2023-04-18T16:47:13.694Z,8.73
2023-04-18T16:49:41.150Z,7.80
2023-04-18T16:52:07.564Z,8.30
2023-04-18T16:54:33.969Z,7.85
2023-04-18T16:57:00.758Z,8.32
2023-04-18T16:59:28.351Z,7.95
2023-04-18T17:01:54.984Z,7.45
2023-04-18T17:04:21.740Z,8.30
2023-04-18T17:06:49.775Z,8.45
2023-04-18T17:09:18.041Z,9.50
2023-04-18T17:11:44.432Z,8.02
2023-04-18T17:14:11.534Z,8.82
2023-04-18T17:16:39.490Z,8.73
2023-04-18T17:19:06.189Z,9.40
2023-04-18T17:21:33.954Z,8.63
2023-04-18T17:24:03.553Z,8.63
2023-04-18T17:28:57.005Z,8.45
2023-04-18T17:31:23.639Z,8.40
2023-04-18T17:33:52.759Z,8.80
2023-04-18T17:36:19.174Z,8.40
2023-04-18T17:38:48.927Z,8.43
2023-04-18T17:41:16.613Z,8.73
2023-04-18T17:43:43.848Z,8.27
2023-04-18T17:46:11.285Z,8.02
2023-04-18T17:48:37.921Z,8.93
2023-04-18T17:51:04.512Z,8.70
2023-04-18T17:53:32.263Z,8.48
2023-04-18T17:55:59.375Z,8.73
2023-04-18T17:58:26.604Z,9.10
2023-04-18T18:00:53.418Z,8.93
2023-04-18T18:03:20.087Z,8.73
2023-04-18T18:05:48.033Z,8.23
2023-04-18T18:08:14.671Z,9.23
2023-04-18T18:10:41.262Z,8.82
2023-04-18T18:13:07.703Z,8.65
2023-04-18T18:15:34.189Z,8.98
2023-04-18T18:18:01.953Z,9.90
2023-04-18T18:20:29.238Z,9.73
2023-04-18T18:22:55.708Z,9.18
2023-04-18T18:25:22.196Z,9.05
2023-04-18T18:27:49.403Z,8.73
2023-04-18T18:30:16.076Z,8.68
2023-04-18T18:32:42.529Z,8.98
2023-04-18T18:35:09.355Z,8.75
2023-04-18T18:37:35.830Z,8.65
2023-04-18T18:40:04.777Z,9.10
2023-04-18T18:42:31.196Z,9.30
2023-04-18T18:44:57.823Z,8.90
2023-04-18T18:47:24.275Z,8.73
2023-04-18T18:49:50.851Z,9.32
2023-04-18T18:52:17.298Z,8.70
2023-04-18T18:54:43.685Z,8.48
2023-04-18T18:57:10.148Z,8.65
2023-04-18T18:59:36.626Z,8.98
2023-04-18T19:02:03.356Z,8.70
2023-04-18T19:04:30.073Z,8.48
2023-04-18T19:06:56.662Z,9.10
2023-04-18T19:09:23.196Z,9.00
2023-04-18T19:11:49.684Z,9.63
2023-04-18T19:14:16.199Z,9.57
2023-04-18T19:16:42.696Z,10.00
2023-04-18T19:19:10.154Z,9.43
2023-04-18T19:21:36.690Z,10.10
2023-04-18T19:24:03.194Z,10.07
2023-04-18T19:26:29.726Z,9.95
2023-04-18T19:28:56.174Z,10.77
2023-04-18T19:31:22.676Z,10.30
2023-04-18T19:33:50.084Z,9.82
2023-04-18T19:36:16.740Z,10.05
2023-04-18T19:38:43.135Z,9.50
2023-04-18T19:41:09.658Z,8.65
2023-04-18T19:43:38.283Z,8.88
2023-04-18T19:46:04.820Z,7.68
2023-04-18T19:48:31.423Z,8.15
2023-04-18T19:50:57.829Z,7.55
2023-04-18T19:53:24.380Z,6.97
2023-04-18T19:55:50.935Z,7.45
2023-04-18T19:58:37.823Z,7.93
2023-04-18T20:01:06.026Z,7.38
2023-04-18T20:03:34.045Z,7.07
2023-04-18T20:06:01.425Z,7.85
2023-04-18T20:08:28.256Z,7.25
2023-04-18T20:10:54.773Z,7.22
2023-04-18T20:13:21.278Z,7.20
2023-04-18T20:15:47.874Z,7.57
2023-04-18T20:18:14.321Z,7.30
2023-04-18T20:20:41.349Z,7.22
2023-04-18T20:23:07.777Z,7.20
2023-04-18T20:25:34.404Z,7.55
2023-04-18T20:28:01.015Z,7.55
2023-04-18T20:30:27.482Z,7.95
2023-04-18T20:32:54.008Z,7.30
2023-04-18T20:35:20.520Z,7.60
2023-04-18T20:37:46.998Z,7.70
2023-04-18T20:40:13.435Z,7.10
2023-04-18T20:42:39.873Z,7.05
2023-04-18T20:45:10.837Z,6.07
2023-04-18T20:47:37.416Z,7.70
2023-04-18T20:50:04.170Z,6.28
2023-04-18T20:52:30.629Z,6.65
2023-04-18T20:54:57.116Z,6.43
2023-04-18T20:57:23.502Z,6.82
2023-04-18T20:59:49.978Z,6.28
2023-04-18T21:02:16.582Z,7.00
2023-04-18T21:04:43.295Z,6.57
2023-04-18T21:07:09.766Z,7.03
2023-04-18T21:09:36.486Z,6.05
2023-04-18T21:12:03.638Z,5.90
2023-04-18T21:14:30.070Z,5.45
2023-04-18T21:16:57.639Z,6.28
2023-04-18T21:19:24.545Z,6.80
2023-04-18T21:21:51.058Z,5.50
2023-04-18T21:24:17.990Z,5.88
2023-04-18T21:26:44.408Z,6.13
2023-04-18T21:29:11.073Z,5.68
2023-04-18T21:31:37.701Z,6.35
2023-04-18T21:34:05.290Z,6.22
2023-04-18T21:36:32.164Z,6.32
2023-04-18T21:39:00.933Z,5.90
2023-04-18T21:41:27.720Z,6.15
2023-04-18T21:43:54.288Z,6.47
2023-04-18T21:46:20.876Z,6.63
2023-04-18T21:48:47.768Z,6.35
2023-04-18T21:51:15.737Z,6.13
2023-04-18T21:53:42.270Z,6.40
2023-04-18T21:56:08.858Z,6.25
2023-04-18T21:58:35.474Z,6.00
2023-04-18T22:01:02.138Z,5.75
2023-04-18T22:03:29.117Z,6.55
2023-04-18T22:05:56.634Z,5.95
2023-04-18T22:08:25.714Z,6.10
2023-04-18T22:10:57.632Z,6.43
2023-04-18T22:13:25.249Z,6.03
2023-04-18T22:15:51.819Z,6.07
2023-04-18T22:18:18.997Z,5.65
2023-04-18T22:20:46.836Z,6.28
2023-04-18T22:23:13.953Z,6.32
2023-04-18T22:25:40.916Z,6.75
2023-04-18T22:28:07.553Z,6.72
2023-04-18T22:30:34.187Z,6.13
2023-04-18T22:33:00.752Z,6.07
2023-04-18T22:35:27.356Z,6.43
2023-04-18T22:37:53.847Z,7.35
2023-04-18T22:40:20.357Z,6.13
2023-04-18T22:42:46.892Z,6.07
2023-04-18T22:45:13.623Z,7.40
2023-04-18T22:47:40.358Z,6.70
2023-04-18T22:50:07.874Z,6.45
2023-04-18T22:52:34.399Z,6.78
2023-04-18T22:55:02.261Z,6.68
2023-04-18T22:57:28.752Z,6.15
2023-04-18T22:59:55.218Z,6.85
2023-04-18T23:02:21.725Z,6.15
2023-04-18T23:04:49.364Z,6.35
2023-04-18T23:07:15.925Z,6.15
2023-04-18T23:09:42.436Z,7.22
2023-04-18T23:12:08.884Z,6.15
2023-04-18T23:14:35.818Z,6.95
2023-04-18T23:17:02.617Z,6.72
2023-04-18T23:19:29.130Z,6.65
2023-04-18T23:21:55.548Z,6.40
2023-04-18T23:24:21.982Z,6.63
2023-04-18T23:26:48.451Z,6.55
2023-04-18T23:29:15.008Z,6.70
2023-04-18T23:31:41.522Z,6.78
2023-04-18T23:34:08.006Z,7.10
2023-04-18T23:36:34.436Z,7.10
2023-04-18T23:39:00.898Z,6.20
2023-04-18T23:41:27.331Z,7.28
2023-04-18T23:43:53.896Z,6.70
2023-04-18T23:46:20.320Z,6.50
2023-04-18T23:48:46.762Z,6.70
2023-04-18T23:51:13.245Z,6.93
2023-04-18T23:53:39.655Z,7.63
2023-04-18T23:56:06.426Z,6.85
2023-04-18T23:58:32.903Z,6.97
